Time;durP1;ratioP1;P1;durP2;ratioP2;P2;SDS_P1;SDS_P2;PMS_P1;PMS_P2;Temp;Humidity;BMP_temperature;BMP_pressure;BME280_temperature;BME280_humidity;BME280_pressure;Samples;Min_cycle;Max_cycle;Signal;HPM_P1;HPM_P2
2022/11/24 00:01:33;;;;;;;11.45;7.40;;;7.70;78.50;;;;;;2345513;57;21557;-52
2022/11/24 00:04:02;;;;;;;13.00;7.47;;;7.70;78.40;;;;;;2345922;57;22099;-51
2022/11/24 00:06:30;;;;;;;12.35;6.62;;;7.70;78.40;;;;;;2346982;57;21661;-49
2022/11/24 00:08:58;;;;;;;16.55;8.18;;;7.70;78.30;;;;;;2344925;57;21045;-50
2022/11/24 00:11:26;;;;;;;12.82;7.85;;;7.80;78.20;;;;;;2345406;57;21046;-50
2022/11/24 00:13:54;;;;;;;12.37;6.37;;;7.80;78.20;;;;;;2345921;57;21105;-51
2022/11/24 00:16:23;;;;;;;11.43;7.30;;;7.80;78.10;;;;;;2345573;57;21616;-50
2022/11/24 00:18:52;;;;;;;10.40;6.75;;;7.90;78.10;;;;;;2345918;57;21621;-52
2022/11/24 00:21:20;;;;;;;15.50;7.57;;;7.90;78.00;;;;;;2346316;57;21537;-51
2022/11/24 00:23:48;;;;;;;15.02;7.50;;;7.90;78.00;;;;;;2345804;57;21054;-51
2022/11/24 00:26:17;;;;;;;14.70;7.50;;;7.90;77.90;;;;;;2344884;57;21053;-50
2022/11/24 00:28:45;;;;;;;12.48;7.85;;;7.90;77.80;;;;;;2345702;57;21700;-52
2022/11/24 00:31:19;;;;;;;14.25;7.30;;;7.90;77.70;;;;;;2346047;57;21113;-50
2022/11/24 00:33:47;;;;;;;11.38;7.03;;;7.90;77.60;;;;;;2346368;57;21105;-53
2022/11/24 00:36:15;;;;;;;13.20;6.82;;;8.00;77.60;;;;;;2347403;57;21006;-50
2022/11/24 00:38:44;;;;;;;12.35;6.97;;;8.00;77.60;;;;;;2347270;57;21022;-53
2022/11/24 00:41:11;;;;;;;10.20;6.50;;;8.00;77.50;;;;;;2346450;57;21029;-52
2022/11/24 00:43:38;;;;;;;11.18;6.28;;;8.00;77.50;;;;;;2347059;57;21498;-51
2022/11/24 00:46:06;;;;;;;14.73;7.20;;;8.00;77.60;;;;;;2346001;56;21097;-52
2022/11/24 00:48:33;;;;;;;11.95;6.53;;;8.00;77.40;;;;;;2346278;57;21612;-49
2022/11/24 00:51:02;;;;;;;15.95;7.57;;;8.00;77.30;;;;;;2346087;57;21026;-53
2022/11/24 00:53:30;;;;;;;13.02;6.78;;;8.00;77.30;;;;;;2345903;57;21594;-51
2022/11/24 00:55:57;;;;;;;12.07;7.87;;;8.00;77.20;;;;;;2346192;57;21565;-51
2022/11/24 00:58:25;;;;;;;12.05;6.95;;;8.10;78.10;;;;;;2346059;57;22968;-51
2022/11/24 01:00:53;;;;;;;15.10;7.35;;;8.10;77.20;;;;;;2346548;57;21109;-49
2022/11/24 01:03:21;;;;;;;15.73;7.20;;;8.10;77.10;;;;;;2346142;57;21552;-51
2022/11/24 01:05:48;;;;;;;14.68;6.93;;;8.10;77.20;;;;;;2346107;57;21164;-50
2022/11/24 01:08:16;;;;;;;15.25;7.37;;;8.10;77.10;;;;;;2345652;57;21049;-53
2022/11/24 01:10:43;;;;;;;8.68;5.93;;;8.00;77.10;;;;;;2346191;57;21085;-51
2022/11/24 01:13:11;;;;;;;13.68;6.97;;;8.10;77.20;;;;;;2345637;57;21050;-50
2022/11/24 01:15:39;;;;;;;11.60;7.03;;;8.10;77.10;;;;;;2345305;57;21094;-51
2022/11/24 01:18:06;;;;;;;15.02;6.80;;;8.10;77.10;;;;;;2345833;57;21548;-48
2022/11/24 01:20:35;;;;;;;13.10;7.57;;;8.20;77.20;;;;;;2345809;57;21125;-52
2022/11/24 01:23:02;;;;;;;12.93;7.07;;;8.20;77.20;;;;;;2345431;57;21119;-50
2022/11/24 01:25:29;;;;;;;13.15;7.62;;;8.20;77.20;;;;;;2346093;57;21048;-54
2022/11/24 01:27:56;;;;;;;8.93;6.72;;;8.10;77.10;;;;;;2346075;57;21537;-51
2022/11/24 01:30:23;;;;;;;11.05;6.90;;;8.20;77.20;;;;;;2346087;57;21038;-49
2022/11/24 01:32:51;;;;;;;12.05;6.65;;;8.20;77.20;;;;;;2346234;57;21596;-52
2022/11/24 01:35:18;;;;;;;16.27;7.50;;;8.20;77.20;;;;;;2346069;57;21069;-48
2022/11/24 01:37:45;;;;;;;8.95;5.85;;;8.20;77.90;;;;;;2345994;57;21018;-50
2022/11/24 01:40:12;;;;;;;9.27;6.28;;;8.20;77.20;;;;;;2346279;57;21058;-49
2022/11/24 01:42:49;;;;;;;10.32;5.90;;;8.20;77.20;;;;;;2346061;57;21018;-48
2022/11/24 01:45:32;;;;;;;9.85;5.60;;;8.20;77.30;;;;;;2346232;57;21109;-48
2022/11/24 01:48:04;;;;;;;8.75;5.55;;;8.20;77.40;;;;;;2345888;57;21124;-49
2022/11/24 01:50:32;;;;;;;12.32;6.45;;;8.20;77.30;;;;;;2346584;57;21526;-51
2022/11/24 01:52:59;;;;;;;12.50;6.00;;;8.20;77.30;;;;;;2346971;57;21054;-49
2022/11/24 01:55:32;;;;;;;12.73;6.20;;;8.20;77.30;;;;;;2347320;57;21013;-53
2022/11/24 01:58:04;;;;;;;13.90;6.60;;;8.20;77.30;;;;;;2347275;57;21057;-52
2022/11/24 02:00:32;;;;;;;9.07;5.50;;;8.20;77.30;;;;;;2345819;57;21526;-50
2022/11/24 02:02:59;;;;;;;8.18;5.28;;;8.20;77.40;;;;;;2345641;57;21504;-52
2022/11/24 02:05:29;;;;;;;11.00;6.10;;;8.20;77.50;;;;;;2345444;57;21109;-53
2022/11/24 02:08:00;;;;;;;9.15;5.97;;;8.20;77.60;;;;;;2345034;57;21104;-51
2022/11/24 02:10:27;;;;;;;7.60;5.05;;;8.20;77.70;;;;;;2346436;57;21541;-52
2022/11/24 02:12:57;;;;;;;9.27;5.80;;;8.20;77.80;;;;;;2346180;57;22181;-49
2022/11/24 02:15:24;;;;;;;8.55;4.90;;;8.30;77.90;;;;;;2346260;57;21613;-50
2022/11/24 02:17:51;;;;;;;9.75;5.82;;;8.30;77.90;;;;;;2345714;57;21534;-51
2022/11/24 02:20:19;;;;;;;10.27;6.10;;;8.30;77.90;;;;;;2345828;57;21045;-48
2022/11/24 02:22:53;;;;;;;12.20;5.87;;;8.30;77.90;;;;;;2344925;57;21129;-50
2022/11/24 02:25:30;;;;;;;9.45;6.60;;;8.30;77.90;;;;;;2345367;57;21105;-53
2022/11/24 02:27:58;;;;;;;7.40;5.05;;;8.30;77.90;;;;;;2347049;57;21061;-51
2022/11/24 02:30:26;;;;;;;14.75;6.80;;;8.40;77.80;;;;;;2347263;57;21125;-54
2022/11/24 02:32:53;;;;;;;13.57;5.90;;;8.40;77.80;;;;;;2347319;57;21013;-51
2022/11/24 02:35:21;;;;;;;9.65;5.75;;;8.40;77.90;;;;;;2347258;57;21045;-52
2022/11/24 02:37:48;;;;;;;10.27;6.05;;;8.40;77.80;;;;;;2345824;57;21057;-49
2022/11/24 02:40:17;;;;;;;12.48;5.80;;;8.40;78.00;;;;;;2344689;57;21069;-52
2022/11/24 02:42:46;;;;;;;9.95;5.55;;;8.40;77.90;;;;;;2346105;57;21117;-52
2022/11/24 02:45:37;;;;;;;12.68;6.15;;;8.40;78.00;;;;;;2345886;57;21541;-50
2022/11/24 02:48:06;;;;;;;11.25;5.50;;;8.40;78.10;;;;;;2345114;57;21046;-49
2022/11/24 02:50:33;;;;;;;7.40;4.95;;;8.40;78.00;;;;;;2345640;57;21495;-51
2022/11/24 02:53:01;;;;;;;10.77;5.55;;;8.40;78.10;;;;;;2345559;57;21061;-50
2022/11/24 02:55:28;;;;;;;6.28;5.20;;;8.40;78.10;;;;;;2346045;57;21050;-50
2022/11/24 02:57:55;;;;;;;9.35;5.12;;;8.40;78.10;;;;;;2345664;57;21050;-51
2022/11/24 03:00:23;;;;;;;10.30;5.95;;;8.40;78.30;;;;;;2345672;57;21589;-48
2022/11/24 03:02:50;;;;;;;9.65;5.65;;;8.40;78.20;;;;;;2345156;57;21049;-53
2022/11/24 03:05:18;;;;;;;11.93;4.78;;;8.50;78.20;;;;;;2346313;57;21033;-50
2022/11/24 03:07:45;;;;;;;7.53;4.95;;;8.50;78.30;;;;;;2344940;57;21054;-51
2022/11/24 03:10:12;;;;;;;7.75;4.87;;;8.50;78.20;;;;;;2346452;57;21033;-51
2022/11/24 03:12:39;;;;;;;7.65;4.68;;;8.50;78.10;;;;;;2346959;57;21029;-50
2022/11/24 03:15:08;;;;;;;8.43;5.55;;;8.50;78.00;;;;;;2345986;57;21125;-50
2022/11/24 03:17:36;;;;;;;9.93;5.25;;;8.50;77.90;;;;;;2346337;57;21030;-49
2022/11/24 03:20:03;;;;;;;9.88;5.10;;;8.50;77.70;;;;;;2345746;57;21093;-49
2022/11/24 03:22:31;;;;;;;11.30;6.03;;;8.50;77.60;;;;;;2345954;57;21049;-53
2022/11/24 03:24:58;;;;;;;9.20;5.50;;;8.50;77.70;;;;;;2346528;57;21594;-50
2022/11/24 03:27:25;;;;;;;9.63;6.07;;;8.50;77.60;;;;;;2346377;57;21125;-50
2022/11/24 03:29:52;;;;;;;12.15;5.95;;;8.40;77.50;;;;;;2344801;57;21577;-50
2022/11/24 03:32:19;;;;;;;8.82;5.55;;;8.40;78.50;;;;;;2346173;57;21109;-50
2022/11/24 03:34:47;;;;;;;7.95;4.80;;;8.40;77.70;;;;;;2346401;57;21077;-49
2022/11/24 03:37:14;;;;;;;7.55;4.97;;;8.40;77.70;;;;;;2346429;57;21510;-48
2022/11/24 03:39:41;;;;;;;11.10;5.25;;;8.40;77.80;;;;;;2345166;57;21105;-51
2022/11/24 03:42:09;;;;;;;8.75;5.20;;;8.40;77.80;;;;;;2345726;57;21180;-52
2022/11/24 03:44:36;;;;;;;14.23;6.03;;;8.40;77.80;;;;;;2344320;57;21109;-50
2022/11/24 03:47:03;;;;;;;12.07;5.32;;;8.40;77.80;;;;;;2345263;57;21613;-52
2022/11/24 03:49:30;;;;;;;9.00;4.95;;;8.40;77.70;;;;;;2345787;57;21560;-48
2022/11/24 03:51:57;;;;;;;9.52;5.15;;;8.40;77.50;;;;;;2345795;57;21042;-50
2022/11/24 03:54:24;;;;;;;13.18;6.37;;;8.40;77.40;;;;;;2346055;57;21629;-52
2022/11/24 03:56:52;;;;;;;8.73;4.97;;;8.40;77.40;;;;;;2345643;57;21033;-48
2022/11/24 03:59:19;;;;;;;11.50;5.37;;;8.30;77.40;;;;;;2345771;57;21105;-50
2022/11/24 04:01:46;;;;;;;7.60;5.72;;;8.40;77.40;;;;;;2344552;57;21077;-50
2022/11/24 04:04:14;;;;;;;9.00;4.93;;;8.30;77.30;;;;;;2346432;57;21184;-49
2022/11/24 04:06:41;;;;;;;13.13;6.00;;;8.30;77.50;;;;;;2346850;57;21050;-52
2022/11/24 04:09:08;;;;;;;5.75;4.45;;;8.30;77.70;;;;;;2345445;57;21117;-50
2022/11/24 04:14:21;;;;;;;11.27;5.95;;;8.30;78.20;;;;;;2344694;56;21264;-52
2022/11/24 04:16:48;;;;;;;12.00;6.32;;;8.30;79.00;;;;;;2345737;57;21124;-51
2022/11/24 04:19:15;;;;;;;15.15;6.62;;;8.30;78.40;;;;;;2345026;57;21045;-49
2022/11/24 04:21:43;;;;;;;12.45;5.82;;;8.30;78.60;;;;;;2346457;57;21046;-49
2022/11/24 04:24:13;;;;;;;12.07;6.72;;;8.30;78.70;;;;;;2345798;57;21049;-50
2022/11/24 04:26:40;;;;;;;12.15;7.45;;;8.30;78.70;;;;;;2346266;57;21052;-48
2022/11/24 04:29:09;;;;;;;10.93;6.70;;;8.30;78.60;;;;;;2343699;57;21046;-52
2022/11/24 04:31:36;;;;;;;10.02;6.50;;;8.30;78.70;;;;;;2345194;57;21025;-49
2022/11/24 04:34:03;;;;;;;8.27;5.68;;;8.40;78.80;;;;;;2346255;57;21046;-53
2022/11/24 04:36:30;;;;;;;8.50;5.72;;;8.40;78.80;;;;;;2345646;57;21049;-49
2022/11/24 04:38:57;;;;;;;9.35;6.15;;;8.40;79.60;;;;;;2346209;57;21114;-53
2022/11/24 04:41:25;;;;;;;13.73;6.47;;;8.40;78.70;;;;;;2346542;57;21037;-49
2022/11/24 04:43:52;;;;;;;9.88;6.07;;;8.40;78.70;;;;;;2343536;57;21093;-48
2022/11/24 04:46:19;;;;;;;14.02;6.37;;;8.40;78.80;;;;;;2346277;57;21050;-49
2022/11/24 04:48:46;;;;;;;12.80;6.22;;;8.40;78.70;;;;;;2346225;57;21589;-51
2022/11/24 04:51:14;;;;;;;11.98;6.15;;;8.50;78.70;;;;;;2346189;57;21069;-52
2022/11/24 04:53:41;;;;;;;11.43;6.25;;;8.50;78.60;;;;;;2346229;57;21589;-48
2022/11/24 04:56:09;;;;;;;11.05;6.05;;;8.50;78.50;;;;;;2345722;57;21034;-49
2022/11/24 04:58:36;;;;;;;9.95;6.12;;;8.50;78.60;;;;;;2345787;57;21042;-52
2022/11/24 05:01:07;;;;;;;8.55;5.85;;;8.50;78.60;;;;;;2344803;57;21046;-49
2022/11/24 05:03:34;;;;;;;14.18;6.60;;;8.50;78.70;;;;;;2346710;57;21701;-50
2022/11/24 05:06:02;;;;;;;13.98;6.12;;;8.50;78.70;;;;;;2347242;57;21510;-50
2022/11/24 05:08:29;;;;;;;16.45;7.57;;;8.60;78.80;;;;;;2347244;57;21097;-52
2022/11/24 05:10:56;;;;;;;11.63;5.70;;;8.60;78.90;;;;;;2345976;57;21112;-53
2022/11/24 05:13:23;;;;;;;10.85;5.97;;;8.60;78.90;;;;;;2345526;57;21109;-51
2022/11/24 05:15:50;;;;;;;9.70;6.53;;;8.60;79.00;;;;;;2345490;57;21112;-49
2022/11/24 05:18:17;;;;;;;13.90;6.85;;;8.60;79.00;;;;;;2345489;57;21061;-50
2022/11/24 05:20:45;;;;;;;9.70;6.00;;;8.60;79.00;;;;;;2346933;57;21030;-53
2022/11/24 05:23:12;;;;;;;8.68;5.22;;;8.70;79.10;;;;;;2346173;57;21105;-50
2022/11/24 05:25:39;;;;;;;9.20;5.22;;;8.70;79.20;;;;;;2344510;57;21037;-51
2022/11/24 05:28:08;;;;;;;9.10;5.12;;;8.70;79.20;;;;;;2345943;57;21404;-49
2022/11/24 05:30:36;;;;;;;10.55;5.57;;;8.70;79.10;;;;;;2345469;57;21045;-48
2022/11/24 05:33:06;;;;;;;7.85;5.28;;;8.80;79.10;;;;;;2346279;57;21045;-49
2022/11/24 05:35:34;;;;;;;14.30;6.18;;;8.80;79.10;;;;;;2345311;57;21117;-49
2022/11/24 05:38:02;;;;;;;10.82;5.07;;;8.80;79.10;;;;;;2347355;57;21081;-50
2022/11/24 05:40:30;;;;;;;11.75;5.68;;;8.80;79.00;;;;;;2347198;57;21100;-54
2022/11/24 05:42:57;;;;;;;8.65;5.50;;;8.80;79.00;;;;;;2346331;57;21010;-48
2022/11/24 05:45:24;;;;;;;8.60;5.22;;;8.90;79.00;;;;;;2347086;57;21029;-51
2022/11/24 05:47:52;;;;;;;12.18;5.37;;;8.90;79.10;;;;;;2345678;57;21557;-52
2022/11/24 05:50:21;;;;;;;11.25;6.18;;;8.90;79.00;;;;;;2346283;57;21061;-49
2022/11/24 05:52:49;;;;;;;10.23;5.53;;;8.90;78.90;;;;;;2345395;57;21615;-51
2022/11/24 05:55:18;;;;;;;9.48;6.30;;;8.90;78.90;;;;;;2346105;57;21105;-49
2022/11/24 05:57:45;;;;;;;12.15;6.45;;;8.90;78.90;;;;;;2345746;57;21223;-48
2022/11/24 06:00:17;;;;;;;10.68;5.62;;;8.90;78.80;;;;;;2346365;57;21346;-53
2022/11/24 06:02:44;;;;;;;12.05;5.37;;;8.90;78.80;;;;;;2346577;57;21176;-52
2022/11/24 06:05:11;;;;;;;13.10;6.45;;;9.00;79.50;;;;;;2345061;57;21129;-52
2022/11/24 06:07:38;;;;;;;9.95;5.43;;;9.00;78.80;;;;;;2346033;57;21613;-50
2022/11/24 06:10:06;;;;;;;9.02;5.20;;;9.00;78.80;;;;;;2344998;57;21109;-48
2022/11/24 06:12:33;;;;;;;11.75;6.12;;;9.00;78.80;;;;;;2345633;57;21049;-52
2022/11/24 06:15:00;;;;;;;11.10;6.18;;;9.00;78.80;;;;;;2345504;57;21049;-55
2022/11/24 06:17:28;;;;;;;20.02;8.00;;;9.00;78.80;;;;;;2345867;57;21093;-53
2022/11/24 06:19:55;;;;;;;31.02;12.90;;;9.00;79.00;;;;;;2346059;57;21065;-54
2022/11/24 06:22:22;;;;;;;1999.90;333.33;;;9.00;81.40;;;;;;2345629;57;21041;-51
2022/11/24 06:24:49;;;;;;;843.05;143.55;;;9.10;83.20;;;;;;2345906;57;21045;-51
2022/11/24 06:27:16;;;;;;;314.85;69.37;;;9.20;87.80;;;;;;2345706;57;21029;-49
2022/11/24 06:29:44;;;;;;;134.35;37.35;;;9.40;90.50;;;;;;2345815;57;21561;-51
2022/11/24 06:32:11;;;;;;;79.22;28.38;;;9.60;91.20;;;;;;2345753;57;21112;-49
2022/11/24 06:34:38;;;;;;;64.47;25.30;;;9.70;91.80;;;;;;2346210;57;21058;-51
2022/11/24 06:37:06;;;;;;;50.03;22.45;;;9.90;92.20;;;;;;2346856;57;21120;-50
2022/11/24 06:39:33;;;;;;;40.35;18.25;;;10.00;92.50;;;;;;2346161;57;21038;-49
2022/11/24 06:42:00;;;;;;;27.73;10.77;;;10.20;92.60;;;;;;2345721;57;21101;-53
2022/11/24 06:44:28;;;;;;;28.17;9.57;;;10.30;92.80;;;;;;2345170;57;21034;-51
2022/11/24 06:46:55;;;;;;;14.90;7.30;;;10.40;92.70;;;;;;2346133;57;21656;-51
2022/11/24 06:49:22;;;;;;;15.45;6.40;;;10.50;92.50;;;;;;2345683;57;21636;-50
2022/11/24 06:51:50;;;;;;;14.60;5.93;;;10.50;91.70;;;;;;2346379;57;21030;-53
2022/11/24 06:54:19;;;;;;;10.55;6.03;;;10.60;90.90;;;;;;2346292;57;21098;-49
2022/11/24 06:56:47;;;;;;;12.70;5.60;;;10.70;90.50;;;;;;2597731;52;21105;-52
2022/11/24 06:59:17;;;;;;;12.18;6.03;;;10.70;89.40;;;;;;2390230;56;21033;-53
2022/11/24 07:01:45;;;;;;;10.73;5.45;;;10.70;87.70;;;;;;2392215;56;21490;-55
2022/11/24 07:04:13;;;;;;;12.50;5.32;;;10.80;85.90;;;;;;2391455;56;21608;-55
2022/11/24 07:06:41;;;;;;;16.42;5.90;;;10.80;84.30;;;;;;2390536;56;21098;-54
2022/11/24 07:09:09;;;;;;;11.30;5.43;;;10.80;82.80;;;;;;2390942;56;21099;-55
2022/11/24 07:11:36;;;;;;;12.37;5.30;;;10.80;81.50;;;;;;2390798;56;21123;-55
2022/11/24 07:14:04;;;;;;;13.95;5.25;;;10.80;80.50;;;;;;2391114;56;21111;-51
2022/11/24 07:16:32;;;;;;;12.00;5.47;;;10.80;79.20;;;;;;2391633;56;21044;-51
2022/11/24 07:19:00;;;;;;;15.77;5.55;;;10.80;78.70;;;;;;2390797;56;21656;-53
2022/11/24 07:21:28;;;;;;;15.10;6.20;;;10.80;77.90;;;;;;2390875;56;21575;-55
2022/11/24 07:23:56;;;;;;;14.05;5.87;;;10.70;77.00;;;;;;2391161;56;21040;-52
2022/11/24 07:26:24;;;;;;;19.87;6.55;;;10.70;76.60;;;;;;2390653;56;21847;-55
2022/11/24 07:28:51;;;;;;;17.73;5.85;;;10.70;76.20;;;;;;2390440;56;21554;-53
2022/11/24 07:31:20;;;;;;;15.63;6.60;;;10.60;75.70;;;;;;2390761;56;21079;-55
2022/11/24 07:33:48;;;;;;;11.98;5.78;;;10.60;75.40;;;;;;2391884;56;21567;-55
2022/11/24 07:36:16;;;;;;;20.00;7.07;;;10.50;75.20;;;;;;2391848;56;21019;-55
2022/11/24 07:38:43;;;;;;;17.65;5.80;;;10.50;75.00;;;;;;2392242;56;21095;-54
2022/11/24 07:41:12;;;;;;;19.08;6.82;;;10.50;75.00;;;;;;2390895;56;21610;-55
2022/11/24 07:43:39;;;;;;;12.80;5.35;;;10.40;75.00;;;;;;2390911;56;21542;-52
2022/11/24 07:46:10;;;;;;;20.25;8.00;;;10.40;75.00;;;;;;2390558;56;21050;-52
2022/11/24 07:48:37;;;;;;;23.15;7.12;;;10.40;75.00;;;;;;2390985;56;21543;-53
2022/11/24 07:51:05;;;;;;;18.95;7.50;;;10.40;75.10;;;;;;2390982;56;21607;-53
2022/11/24 07:53:33;;;;;;;16.87;6.53;;;10.30;75.00;;;;;;2391438;56;21582;-55
2022/11/24 07:56:03;;;;;;;10.77;5.03;;;10.30;74.90;;;;;;2391158;56;21119;-54
2022/11/24 07:58:32;;;;;;;13.55;5.22;;;10.30;75.00;;;;;;2391092;56;21609;-53
2022/11/24 08:00:59;;;;;;;13.23;5.00;;;10.30;74.90;;;;;;2390959;56;21672;-54
2022/11/24 08:03:26;;;;;;;11.55;5.37;;;10.30;75.10;;;;;;2390811;56;21624;-51
2022/11/24 08:05:54;;;;;;;9.73;5.25;;;10.20;75.00;;;;;;2390826;56;21047;-53
2022/11/24 08:08:22;;;;;;;11.57;5.50;;;10.20;75.10;;;;;;2390905;56;21550;-54
2022/11/24 08:10:49;;;;;;;13.20;5.37;;;10.20;75.20;;;;;;2390783;56;21524;-54
2022/11/24 08:13:16;;;;;;;12.27;4.93;;;10.20;75.30;;;;;;2390918;56;21135;-52
2022/11/24 08:15:43;;;;;;;14.32;6.00;;;10.10;75.30;;;;;;2390525;56;21098;-52
2022/11/24 08:18:10;;;;;;;10.93;5.35;;;10.10;75.40;;;;;;2389202;56;21060;-51
2022/11/24 08:20:38;;;;;;;10.05;5.37;;;10.10;75.40;;;;;;2389771;56;21044;-52
2022/11/24 08:23:05;;;;;;;10.45;5.60;;;10.10;75.50;;;;;;2391070;56;21118;-54
2022/11/24 08:25:32;;;;;;;9.68;4.32;;;10.00;75.50;;;;;;2390803;56;21064;-54
2022/11/24 08:28:00;;;;;;;9.60;5.55;;;10.00;75.60;;;;;;2390650;56;21040;-53
2022/11/24 08:30:28;;;;;;;13.40;4.90;;;10.00;75.60;;;;;;2391686;56;21563;-54
2022/11/24 08:32:57;;;;;;;8.80;5.25;;;10.00;75.70;;;;;;2391402;56;22111;-52
2022/11/24 08:35:24;;;;;;;14.90;6.03;;;10.00;75.70;;;;;;2390095;56;21106;-53
2022/11/24 08:37:51;;;;;;;7.80;5.20;;;10.00;75.90;;;;;;2391055;56;21591;-54
2022/11/24 08:40:19;;;;;;;12.80;6.15;;;9.90;75.80;;;;;;2390629;56;21544;-51
2022/11/24 08:42:46;;;;;;;14.70;6.55;;;10.00;76.10;;;;;;2390107;56;21618;-52
2022/11/24 08:47:53;;;;;;;13.52;5.95;;;10.00;76.30;;;;;;2325778;57;22135;-52
2022/11/24 08:50:20;;;;;;;14.07;6.30;;;10.00;76.40;;;;;;2348391;57;21021;-54
2022/11/24 08:52:48;;;;;;;13.73;5.65;;;10.00;76.50;;;;;;2348369;57;21033;-50
2022/11/24 08:55:15;;;;;;;14.75;6.40;;;10.00;76.40;;;;;;2348585;57;21041;-51
2022/11/24 08:57:42;;;;;;;9.38;5.70;;;10.00;76.50;;;;;;2347392;57;21061;-53
2022/11/24 09:00:13;;;;;;;13.70;7.20;;;10.00;76.70;;;;;;2346936;57;21105;-53
2022/11/24 09:02:41;;;;;;;10.07;5.75;;;9.90;76.70;;;;;;2346535;57;21132;-53
2022/11/24 09:05:09;;;;;;;10.75;5.47;;;10.00;76.90;;;;;;2346487;57;21061;-53
2022/11/24 09:07:36;;;;;;;14.15;6.82;;;10.00;76.90;;;;;;2347546;57;21561;-54
2022/11/24 09:10:04;;;;;;;13.00;5.87;;;10.00;77.00;;;;;;2347658;57;21592;-54
2022/11/24 09:12:31;;;;;;;15.77;6.50;;;10.00;77.20;;;;;;2346827;57;22090;-53
2022/11/24 09:14:58;;;;;;;12.45;6.22;;;10.00;77.20;;;;;;2346457;57;21134;-54
2022/11/24 09:17:25;;;;;;;15.05;6.37;;;10.00;77.30;;;;;;2346633;57;21533;-52
2022/11/24 09:19:52;;;;;;;13.40;5.90;;;9.90;76.70;;;;;;2345321;57;21057;-52
2022/11/24 09:22:19;;;;;;;12.18;6.20;;;9.90;77.40;;;;;;2346764;57;21054;-53
2022/11/24 09:24:47;;;;;;;15.48;6.68;;;10.00;77.40;;;;;;2346674;57;21057;-53
2022/11/24 09:27:14;;;;;;;19.23;6.20;;;10.00;78.20;;;;;;2346364;57;21062;-52
2022/11/24 09:29:41;;;;;;;11.43;5.93;;;10.00;77.60;;;;;;2346465;57;21109;-54
2022/11/24 09:32:08;;;;;;;13.82;5.75;;;10.00;77.80;;;;;;2346030;57;21616;-54
2022/11/24 09:34:35;;;;;;;14.35;6.22;;;10.10;78.00;;;;;;2346513;57;21112;-52
2022/11/24 09:37:02;;;;;;;13.65;5.75;;;10.10;77.30;;;;;;2346250;57;21132;-54
2022/11/24 09:39:30;;;;;;;10.25;5.25;;;10.10;78.10;;;;;;2346812;57;21125;-51
2022/11/24 09:42:13;;;;;;;13.62;5.65;;;10.10;78.10;;;;;;2347022;57;21085;-54
2022/11/24 09:45:18;;;;;;;10.73;4.82;;;10.20;78.00;;;;;;2348123;57;21113;-53
2022/11/24 09:47:55;;;;;;;16.27;6.37;;;10.20;77.90;;;;;;2347504;57;21721;-52
2022/11/24 09:50:25;;;;;;;11.20;5.37;;;10.20;77.80;;;;;;2347019;57;21105;-52
2022/11/24 09:53:00;;;;;;;11.12;5.10;;;10.20;77.90;;;;;;2346745;57;21377;-53
2022/11/24 09:55:38;;;;;;;9.05;4.72;;;10.20;78.00;;;;;;2347421;57;21088;-52
2022/11/24 09:58:33;;;;;;;10.10;5.12;;;10.20;77.90;;;;;;2346541;57;21549;-50
2022/11/24 10:01:00;;;;;;;13.18;4.97;;;10.20;78.00;;;;;;2345927;57;21645;-55
2022/11/24 10:03:33;;;;;;;9.00;5.18;;;10.30;78.00;;;;;;2346347;57;21132;-54
2022/11/24 10:06:04;;;;;;;12.48;5.37;;;10.30;78.10;;;;;;2346370;57;21140;-53
2022/11/24 10:08:53;;;;;;;9.02;5.07;;;10.30;78.10;;;;;;2346505;57;21622;-53
2022/11/24 10:11:30;;;;;;;14.82;5.47;;;10.40;78.10;;;;;;2345798;57;21628;-51
2022/11/24 10:14:19;;;;;;;16.23;5.05;;;10.40;78.20;;;;;;2345884;57;21517;-54
2022/11/24 10:16:52;;;;;;;14.02;5.68;;;10.40;78.30;;;;;;2345954;57;21588;-53
2022/11/24 10:19:30;;;;;;;10.88;4.95;;;10.50;78.50;;;;;;2346692;57;21573;-54
2022/11/24 10:22:13;;;;;;;16.85;5.70;;;10.50;78.70;;;;;;2346931;57;21045;-54
2022/11/24 10:25:02;;;;;;;13.88;6.18;;;10.50;78.90;;;;;;2346071;57;21687;-53
2022/11/24 10:27:35;;;;;;;17.87;6.22;;;10.60;79.00;;;;;;2345900;57;21101;-51
2022/11/24 10:30:11;;;;;;;11.75;5.03;;;10.60;78.70;;;;;;2345810;57;21542;-53
2022/11/24 10:32:44;;;;;;;17.00;5.90;;;10.70;78.60;;;;;;2345705;57;21049;-49
2022/11/24 10:35:16;;;;;;;16.42;5.80;;;10.70;78.80;;;;;;2346327;57;21164;-52
2022/11/24 10:37:50;;;;;;;26.43;7.37;;;10.70;78.90;;;;;;2347662;57;21029;-53
2022/11/24 10:40:26;;;;;;;11.77;4.93;;;10.80;79.60;;;;;;2346986;57;21560;-54
2022/11/24 10:42:53;;;;;;;14.50;5.30;;;10.80;78.90;;;;;;2347279;57;21148;-49
2022/11/24 10:45:21;;;;;;;16.27;6.57;;;10.90;78.90;;;;;;2346620;57;21128;-54
2022/11/24 10:47:49;;;;;;;15.05;6.20;;;10.90;78.90;;;;;;2346025;57;21561;-53
2022/11/24 10:50:21;;;;;;;18.87;5.57;;;11.00;78.80;;;;;;2345993;57;21042;-53
2022/11/24 10:52:56;;;;;;;16.60;5.53;;;11.00;78.80;;;;;;2346636;57;21148;-53
2022/11/24 10:55:23;;;;;;;15.88;5.75;;;11.00;78.70;;;;;;2346341;57;21898;-52
2022/11/24 10:57:50;;;;;;;18.73;7.20;;;11.10;78.50;;;;;;2346781;57;21057;-51
2022/11/24 11:00:34;;;;;;;15.05;5.30;;;11.10;78.70;;;;;;2346292;57;21045;-53
2022/11/24 11:03:16;;;;;;;14.70;5.55;;;11.10;78.50;;;;;;2346284;57;21137;-51
2022/11/24 11:08:24;;;;;;;18.77;6.53;;;11.10;78.10;;;;;;2335850;57;27789;-51
2022/11/24 11:11:19;;;;;;;13.68;4.90;;;11.10;79.80;;;;;;2347379;57;21116;-51
2022/11/24 11:13:55;;;;;;;13.50;5.32;;;11.20;79.30;;;;;;2347118;57;21650;-52
2022/11/24 11:16:26;;;;;;;13.75;5.57;;;11.20;78.40;;;;;;2367628;56;21503;-53
2022/11/24 11:18:53;;;;;;;11.55;4.90;;;11.30;78.20;;;;;;2375999;56;21101;-52
2022/11/24 11:21:32;;;;;;;14.13;5.68;;;11.30;77.90;;;;;;2375848;56;21395;-55
2022/11/24 11:24:01;;;;;;;15.18;5.40;;;11.30;77.80;;;;;;2375241;56;21197;-51
2022/11/24 11:26:36;;;;;;;12.75;5.93;;;11.30;77.70;;;;;;2374648;56;21595;-54
2022/11/24 11:29:15;;;;;;;13.90;5.65;;;11.40;77.80;;;;;;2374553;56;21113;-54
2022/11/24 11:31:54;;;;;;;10.85;4.82;;;11.40;77.60;;;;;;2374576;56;21542;-53
2022/11/24 11:34:22;;;;;;;12.13;5.03;;;11.40;77.70;;;;;;2374915;56;21609;-53
2022/11/24 11:36:51;;;;;;;15.43;5.20;;;11.40;78.60;;;;;;2375403;56;21526;-54
2022/11/24 11:39:24;;;;;;;15.82;6.10;;;11.50;77.80;;;;;;2375543;56;21538;-50
2022/11/24 11:42:01;;;;;;;17.33;5.87;;;11.50;77.60;;;;;;2374656;56;21113;-50
2022/11/24 11:44:35;;;;;;;14.05;5.28;;;11.50;77.30;;;;;;2373937;56;21571;-50
2022/11/24 11:49:48;;;;;;;10.75;4.50;;;11.50;77.30;;;;;;2355556;57;22074;-51
2022/11/24 11:52:40;;;;;;;16.80;5.07;;;11.60;77.10;;;;;;2347279;57;21056;-51
2022/11/24 11:55:26;;;;;;;13.45;4.53;;;11.60;77.20;;;;;;2352968;56;21046;-51
2022/11/24 11:57:58;;;;;;;23.75;5.70;;;11.60;76.90;;;;;;2375800;56;21535;-53
2022/11/24 12:00:26;;;;;;;13.77;5.62;;;11.60;77.00;;;;;;2376055;56;21035;-54
2022/11/24 12:03:24;;;;;;;16.52;5.30;;;11.70;76.80;;;;;;2374880;56;21059;-53
2022/11/24 12:06:00;;;;;;;12.50;5.43;;;11.70;76.80;;;;;;2373783;56;21642;-54
2022/11/24 12:08:39;;;;;;;19.90;5.95;;;11.70;76.80;;;;;;2374389;56;21110;-51
2022/11/24 12:11:14;;;;;;;22.98;5.90;;;11.70;76.80;;;;;;2374247;56;21605;-53
2022/11/24 12:14:00;;;;;;;14.63;5.57;;;11.70;76.80;;;;;;2374913;56;21629;-53
2022/11/24 12:16:40;;;;;;;13.68;5.28;;;11.70;76.90;;;;;;2374170;56;21346;-54
2022/11/24 12:19:45;;;;;;;13.75;4.60;;;11.70;76.80;;;;;;2373988;56;21117;-54
2022/11/24 12:22:23;;;;;;;16.40;4.68;;;11.80;77.00;;;;;;2373940;56;21531;-51
2022/11/24 12:24:59;;;;;;;16.67;5.60;;;11.80;76.80;;;;;;2373893;56;21122;-52
2022/11/24 12:27:38;;;;;;;14.63;4.95;;;11.80;77.60;;;;;;2373972;56;22131;-50
2022/11/24 12:30:11;;;;;;;14.57;4.68;;;11.80;76.90;;;;;;2373139;56;21098;-51
2022/11/24 12:33:05;;;;;;;13.05;5.03;;;11.80;76.70;;;;;;2374953;56;21517;-51
2022/11/24 12:35:38;;;;;;;15.85;5.47;;;11.80;76.60;;;;;;2374891;56;21594;-50
2022/11/24 12:38:24;;;;;;;16.80;4.85;;;11.80;76.60;;;;;;2375627;56;21039;-52
2022/11/24 12:41:08;;;;;;;15.43;5.05;;;11.80;76.70;;;;;;2375553;56;21373;-52
2022/11/24 12:43:37;;;;;;;16.92;5.80;;;11.80;76.50;;;;;;2373465;56;21055;-50
2022/11/24 12:46:14;;;;;;;10.85;4.20;;;11.80;76.50;;;;;;2374004;56;21522;-54
2022/11/24 12:48:52;;;;;;;11.30;4.40;;;11.80;76.20;;;;;;2374558;56;21673;-52
2022/11/24 12:51:26;;;;;;;18.48;5.15;;;11.90;76.20;;;;;;2374577;56;21117;-50
2022/11/24 12:53:56;;;;;;;10.18;4.28;;;11.90;76.20;;;;;;2375110;56;21514;-50
2022/11/24 12:56:30;;;;;;;16.92;5.28;;;11.90;75.90;;;;;;2465563;54;21042;-51
2022/11/24 12:59:04;;;;;;;12.98;4.22;;;11.90;75.90;;;;;;2300111;58;21046;-54
2022/11/24 13:01:39;;;;;;;17.45;5.80;;;11.90;75.80;;;;;;2301657;58;21125;-50
2022/11/24 13:04:13;;;;;;;10.52;4.00;;;12.00;76.10;;;;;;2300546;58;21655;-51
2022/11/24 13:06:50;;;;;;;16.67;6.00;;;12.00;76.00;;;;;;2299225;58;21677;-54
2022/11/24 13:09:18;;;;;;;14.20;4.93;;;12.00;76.30;;;;;;2299636;58;21641;-51